Time;durP1;ratioP1;P1;durP2;ratioP2;P2;SDS_P1;SDS_P2;PMS_P1;PMS_P2;Temp;Humidity;BMP_temperature;BMP_pressure;BME280_temperature;BME280_humidity;BME280_pressure;Samples;Min_cycle;Max_cycle;Signal;HPM_P1;HPM_P2
2023/12/17 00:01:22;;;;;;;75.00;9.88;;;;;;;7.37;100.00;101752.56;5058210;28;20029;-74
2023/12/17 00:03:47;;;;;;;76.78;10.23;;;;;;;7.38;100.00;101736.31;5040276;28;20033;-74
2023/12/17 00:06:13;;;;;;;76.20;10.65;;;;;;;7.29;100.00;101735.44;5040056;28;20087;-74
2023/12/17 00:08:40;;;;;;;59.97;9.00;;;;;;;7.30;100.00;101739.78;5039533;28;20025;-74
2023/12/17 00:11:05;;;;;;;71.78;10.18;;;;;;;7.29;100.00;101729.25;5023302;28;20035;-73
2023/12/17 00:13:31;;;;;;;41.97;7.72;;;;;;;7.33;100.00;101735.97;5056827;28;20032;-74
2023/12/17 00:15:56;;;;;;;63.97;8.65;;;;;;;7.36;100.00;101762.44;5040480;28;20049;-73
2023/12/17 00:18:21;;;;;;;72.10;10.07;;;;;;;7.32;100.00;101753.03;5022904;28;20032;-74
2023/12/17 00:20:48;;;;;;;75.57;11.05;;;;;;;7.31;100.00;101754.00;5023532;28;20029;-74
2023/12/17 00:23:13;;;;;;;63.08;9.30;;;;;;;7.18;100.00;101724.97;5057625;28;20029;-73
2023/12/17 00:25:39;;;;;;;63.30;8.38;;;;;;;7.29;100.00;101746.16;5040150;28;20029;-74
2023/12/17 00:28:05;;;;;;;78.18;10.57;;;;;;;7.21;100.00;101755.94;5040209;28;20017;-74
2023/12/17 00:30:30;;;;;;;71.22;11.23;;;;;;;7.26;100.00;101764.34;5024078;28;20025;-74
2023/12/17 00:32:55;;;;;;;71.10;10.70;;;;;;;7.19;100.00;101757.94;5039408;28;20051;-75
2023/12/17 00:35:21;;;;;;;45.80;6.35;;;;;;;7.14;100.00;101747.69;5040510;28;20096;-74
2023/12/17 00:37:46;;;;;;;78.55;10.52;;;;;;;7.24;100.00;101774.38;5039477;28;20558;-73
2023/12/17 00:40:12;;;;;;;48.70;7.57;;;;;;;7.25;100.00;101776.03;5039581;28;20053;-74
2023/12/17 00:42:37;;;;;;;73.90;9.52;;;;;;;7.23;100.00;101781.56;5039766;28;20029;-74
2023/12/17 00:45:03;;;;;;;71.72;11.45;;;;;;;7.23;100.00;101778.88;5057117;28;20029;-74
2023/12/17 00:47:28;;;;;;;84.57;11.35;;;;;;;7.23;100.00;101778.06;5039348;28;20029;-73
2023/12/17 00:49:54;;;;;;;75.05;9.60;;;;;;;7.26;100.00;101778.59;5022690;28;20507;-74
2023/12/17 00:52:22;;;;;;;72.50;9.82;;;;;;;7.17;100.00;101768.78;5039290;28;20383;-74
2023/12/17 00:54:48;;;;;;;67.38;9.68;;;;;;;7.33;100.00;101789.53;5039762;28;20483;-74
2023/12/17 00:57:14;;;;;;;74.40;9.50;;;;;;;7.37;100.00;101787.38;5038877;28;20051;-74
2023/12/17 00:59:39;;;;;;;54.17;9.27;;;;;;;7.35;100.00;101776.84;5057062;28;20475;-74
2023/12/17 01:02:05;;;;;;;75.72;10.48;;;;;;;7.44;100.00;101791.13;5042843;28;20047;-74
2023/12/17 01:04:31;;;;;;;71.57;9.15;;;;;;;7.42;100.00;101791.28;5061088;28;20035;-74
2023/12/17 01:06:56;;;;;;;73.07;9.25;;;;;;;7.43;100.00;101790.28;5026859;28;20033;-73
2023/12/17 01:09:22;;;;;;;71.10;9.63;;;;;;;7.28;100.00;101778.41;5026661;28;20033;-74
2023/12/17 01:11:47;;;;;;;67.47;8.85;;;;;;;7.29;100.00;101782.78;5026590;28;20040;-74
2023/12/17 01:14:13;;;;;;;58.50;8.27;;;;;;;7.32;100.00;101800.38;5042622;28;20033;-74
2023/12/17 01:16:38;;;;;;;75.18;10.25;;;;;;;7.30;100.00;101814.75;5043908;28;20029;-74
2023/12/17 01:19:03;;;;;;;69.25;9.70;;;;;;;7.04;100.00;101768.31;5027061;28;20060;-73
2023/12/17 01:21:29;;;;;;;72.32;9.98;;;;;;;7.35;100.00;101826.84;5039113;28;20024;-74
2023/12/17 01:23:57;;;;;;;78.13;11.25;;;;;;;7.34;100.00;101838.53;5038572;28;20033;-74
2023/12/17 01:26:29;;;;;;;74.70;10.30;;;;;;;7.20;100.00;101816.66;5039714;28;20027;-74
2023/12/17 01:28:54;;;;;;;72.10;8.85;;;;;;;7.30;100.00;101838.84;5043032;28;20503;-73
2023/12/17 01:31:20;;;;;;;80.32;10.05;;;;;;;7.20;100.00;101837.25;5026263;28;20060;-73
2023/12/17 01:33:45;;;;;;;75.20;9.80;;;;;;;7.29;100.00;101855.09;5060319;28;20031;-73
2023/12/17 01:36:11;;;;;;;72.55;9.07;;;;;;;7.26;100.00;101863.41;5058914;28;20044;-73
2023/12/17 01:38:37;;;;;;;77.25;9.80;;;;;;;7.25;100.00;101854.53;5042183;28;20033;-75
2023/12/17 01:41:02;;;;;;;75.45;9.15;;;;;;;7.24;100.00;101858.19;5061007;28;20175;-74
2023/12/17 01:43:28;;;;;;;81.32;9.77;;;;;;;7.22;100.00;101862.03;5042175;28;20213;-74
2023/12/17 01:45:54;;;;;;;62.50;8.10;;;;;;;7.21;100.00;101860.34;5060366;28;20025;-73
2023/12/17 01:48:24;;;;;;;71.95;8.52;;;;;;;7.21;100.00;101857.66;5061018;28;20017;-73
2023/12/17 01:50:50;;;;;;;67.22;9.00;;;;;;;7.24;100.00;101858.19;5060978;28;20136;-74
2023/12/17 01:53:16;;;;;;;82.32;9.68;;;;;;;7.25;100.00;101867.06;5042946;28;20315;-74
2023/12/17 01:55:45;;;;;;;87.25;9.20;;;;;;;7.23;100.00;101869.06;5042039;28;20052;-73
2023/12/17 01:58:11;;;;;;;66.78;9.10;;;;;;;7.14;100.00;101835.16;5041979;28;20080;-73
2023/12/17 02:00:37;;;;;;;73.13;9.13;;;;;;;7.23;100.00;101853.00;5042259;28;20480;-73
2023/12/17 02:03:05;;;;;;;72.13;8.98;;;;;;;7.26;100.00;101858.06;5042068;28;20678;-74
2023/12/17 02:05:36;;;;;;;66.70;8.27;;;;;;;7.26;100.00;101852.72;5060024;28;20036;-74
2023/12/17 02:08:03;;;;;;;62.90;7.72;;;;;;;7.28;100.00;101861.41;5042018;28;20057;-73
2023/12/17 02:10:29;;;;;;;78.57;8.98;;;;;;;7.25;100.00;101865.25;5059679;28;20116;-74
2023/12/17 02:12:54;;;;;;;69.45;8.70;;;;;;;7.16;100.00;101846.56;5056778;28;20036;-73
2023/12/17 02:15:20;;;;;;;53.42;8.10;;;;;;;7.22;100.00;101872.75;5041851;28;20029;-73
2023/12/17 02:17:45;;;;;;;69.38;8.23;;;;;;;7.26;100.00;101877.63;5041361;28;20076;-73
2023/12/17 02:20:11;;;;;;;63.97;9.38;;;;;;;7.18;100.00;101877.53;5059722;28;20025;-74
2023/12/17 02:22:38;;;;;;;48.83;6.57;;;;;;;7.19;100.00;101867.69;5042526;28;20040;-74
2023/12/17 02:25:04;;;;;;;68.47;8.85;;;;;;;7.25;100.00;101883.13;5041950;28;20025;-74
2023/12/17 02:27:30;;;;;;;54.97;6.93;;;;;;;7.24;100.00;101876.94;5042175;28;20033;-74
2023/12/17 02:29:56;;;;;;;62.15;7.68;;;;;;;7.22;100.00;101878.09;5060070;28;20056;-74
2023/12/17 02:32:22;;;;;;;67.18;8.63;;;;;;;7.23;100.00;101874.41;5059668;28;20052;-74
2023/12/17 02:34:48;;;;;;;63.60;7.53;;;;;;;7.19;100.00;101878.41;5059711;28;20033;-74
2023/12/17 02:37:14;;;;;;;63.35;8.40;;;;;;;7.19;100.00;101876.56;5059879;28;20032;-74
2023/12/17 02:39:40;;;;;;;74.15;8.30;;;;;;;7.22;100.00;101883.44;5058461;28;20033;-74
2023/12/17 02:42:10;;;;;;;58.20;8.18;;;;;;;7.24;100.00;101895.66;5060235;28;20109;-74
2023/12/17 02:44:36;;;;;;;49.50;7.57;;;;;;;7.14;100.00;101886.03;5059018;28;20396;-74
2023/12/17 02:47:01;;;;;;;54.53;6.75;;;;;;;7.17;100.00;101885.72;5041265;28;20020;-74
2023/12/17 02:49:27;;;;;;;64.95;8.93;;;;;;;7.17;100.00;101885.72;5040751;28;20159;-74
2023/12/17 02:51:55;;;;;;;64.40;7.70;;;;;;;7.17;100.00;101891.91;5057800;28;20120;-74
2023/12/17 02:54:21;;;;;;;57.80;7.97;;;;;;;7.09;100.00;101885.66;5040742;28;20037;-74
2023/12/17 02:56:47;;;;;;;79.25;9.68;;;;;;;7.10;100.00;101885.47;5036997;28;20029;-74
2023/12/17 02:59:13;;;;;;;71.38;8.35;;;;;;;7.18;100.00;101900.78;5023284;28;20114;-74
2023/12/17 03:01:43;;;;;;;56.10;7.13;;;;;;;7.21;100.00;101909.34;5040932;28;20544;-74
2023/12/17 03:04:10;;;;;;;64.68;7.95;;;;;;;7.18;100.00;101903.47;5057039;28;20048;-74
2023/12/17 03:06:37;;;;;;;61.83;8.65;;;;;;;7.18;100.00;101908.81;5058936;28;20021;-74
2023/12/17 03:09:02;;;;;;;56.75;8.55;;;;;;;7.04;100.00;101886.91;5059034;28;20020;-74
2023/12/17 03:11:28;;;;;;;64.03;7.55;;;;;;;7.17;100.00;101909.81;5058462;28;20052;-75
2023/12/17 03:13:54;;;;;;;56.35;6.82;;;;;;;7.16;100.00;101882.22;5024360;28;20067;-74
2023/12/17 03:16:19;;;;;;;63.90;8.25;;;;;;;7.12;100.00;101877.28;5040898;28;20096;-73
2023/12/17 03:18:45;;;;;;;52.67;7.35;;;;;;;7.11;100.00;101879.13;5058889;28;20492;-74
2023/12/17 03:21:12;;;;;;;64.22;6.43;;;;;;;6.99;100.00;101867.81;5040724;28;20475;-74
2023/12/17 03:23:37;;;;;;;52.42;7.18;;;;;;;6.94;100.00;101851.34;5057796;28;20080;-74
2023/12/17 03:26:03;;;;;;;54.92;7.05;;;;;;;7.10;100.00;101868.59;5039517;28;20547;-74
2023/12/17 03:28:29;;;;;;;60.33;6.85;;;;;;;7.09;100.00;101866.91;5058207;28;20032;-74
2023/12/17 03:30:55;;;;;;;45.72;6.53;;;;;;;6.71;100.00;101805.44;5057661;28;20024;-74
2023/12/17 03:33:20;;;;;;;56.50;7.35;;;;;;;6.96;100.00;101856.56;5023356;28;20033;-74
2023/12/17 03:35:46;;;;;;;57.45;7.38;;;;;;;7.05;100.00;101871.69;5040653;28;20033;-74
2023/12/17 03:38:13;;;;;;;67.18;8.18;;;;;;;6.92;100.00;101865.84;5041104;28;20548;-74
2023/12/17 03:40:40;;;;;;;73.38;7.97;;;;;;;7.02;100.00;101888.06;5059120;28;20064;-74
2023/12/17 03:43:07;;;;;;;55.67;7.38;;;;;;;7.03;100.00;101895.94;5058670;28;20024;-74
2023/12/17 03:45:33;;;;;;;66.75;7.32;;;;;;;6.94;100.00;101893.31;5034344;28;20029;-74
2023/12/17 03:47:59;;;;;;;73.40;8.43;;;;;;;7.02;100.00;101901.47;5034646;28;20094;-74
2023/12/17 03:50:25;;;;;;;75.13;7.70;;;;;;;6.92;100.00;101876.56;5053355;28;20039;-74
2023/12/17 03:52:51;;;;;;;71.72;8.32;;;;;;;6.95;100.00;101886.97;5042513;28;20032;-74
2023/12/17 03:55:17;;;;;;;77.93;8.07;;;;;;;6.97;100.00;101885.00;5058989;28;20094;-75
2023/12/17 03:57:42;;;;;;;83.50;8.00;;;;;;;6.95;100.00;101895.81;5058742;28;20032;-74
2023/12/17 04:00:11;;;;;;;79.47;8.10;;;;;;;6.87;100.00;101884.19;5077540;28;20033;-73
2023/12/17 04:02:36;;;;;;;65.32;7.80;;;;;;;6.92;100.00;101906.00;5060184;28;20024;-74
2023/12/17 04:05:02;;;;;;;62.00;7.75;;;;;;;6.92;100.00;101911.34;5060173;28;20024;-74
2023/12/17 04:07:30;;;;;;;56.80;6.95;;;;;;;6.94;100.00;101915.56;5059878;28;20023;-74
2023/12/17 04:10:02;;;;;;;72.25;8.02;;;;;;;6.96;100.00;101928.81;5078309;28;20044;-74
2023/12/17 04:12:28;;;;;;;62.65;8.40;;;;;;;6.94;100.00;101933.44;5042913;28;20413;-73
2023/12/17 04:14:54;;;;;;;65.03;8.02;;;;;;;6.95;100.00;101930.63;5076415;28;20095;-74
2023/12/17 04:17:19;;;;;;;59.10;7.50;;;;;;;6.96;100.00;101926.13;5058056;28;20028;-73
2023/12/17 04:19:44;;;;;;;67.57;7.40;;;;;;;6.94;100.00;101926.25;5075662;28;20032;-74
2023/12/17 04:22:10;;;;;;;73.07;8.13;;;;;;;6.95;100.00;101919.91;5057782;28;20066;-74
2023/12/17 04:24:35;;;;;;;54.10;6.35;;;;;;;6.98;100.00;101919.63;5074804;28;20093;-73
2023/12/17 04:27:00;;;;;;;69.00;7.25;;;;;;;6.95;100.00;101909.22;5057904;28;20142;-73
2023/12/17 04:29:26;;;;;;;53.45;6.90;;;;;;;6.91;100.00;101899.81;5059918;28;20033;-73
2023/12/17 04:31:52;;;;;;;58.85;6.95;;;;;;;6.85;100.00;101886.16;5043123;28;20051;-74
2023/12/17 04:34:17;;;;;;;55.85;7.10;;;;;;;6.90;100.00;101894.63;5058911;28;20035;-73
2023/12/17 04:36:43;;;;;;;71.20;8.48;;;;;;;6.80;100.00;101878.59;5042285;28;20043;-73
2023/12/17 04:39:09;;;;;;;66.07;7.78;;;;;;;6.93;100.00;101899.66;5059162;28;20479;-74
2023/12/17 04:41:36;;;;;;;65.35;7.93;;;;;;;6.75;100.00;101880.88;5043122;28;20052;-74
2023/12/17 04:44:01;;;;;;;57.78;7.10;;;;;;;6.84;100.00;101896.03;5059628;28;20031;-74
2023/12/17 04:46:28;;;;;;;59.75;8.05;;;;;;;6.94;100.00;101910.22;5077527;28;20048;-73
2023/12/17 04:48:55;;;;;;;60.00;7.57;;;;;;;6.76;100.00;101875.38;5059336;28;20043;-73
2023/12/17 04:51:21;;;;;;;44.70;6.20;;;;;;;6.92;100.00;101901.50;5059219;28;20021;-73
2023/12/17 04:53:46;;;;;;;58.40;7.07;;;;;;;6.93;100.00;101891.63;5042999;28;20032;-73
2023/12/17 04:56:12;;;;;;;53.80;8.00;;;;;;;6.76;100.00;101866.53;5059261;28;20078;-73
2023/12/17 04:58:37;;;;;;;57.40;7.35;;;;;;;6.96;100.00;101888.66;5059009;28;20025;-73
2023/12/17 05:01:03;;;;;;;66.35;7.85;;;;;;;6.97;100.00;101885.00;5077555;28;20032;-73
2023/12/17 05:03:28;;;;;;;57.33;7.32;;;;;;;7.00;100.00;101880.19;5059134;28;20033;-73
2023/12/17 05:05:54;;;;;;;78.53;8.38;;;;;;;7.02;100.00;101872.03;5077493;28;20039;-73
2023/12/17 05:08:19;;;;;;;63.65;8.10;;;;;;;7.04;100.00;101875.38;5059128;28;20024;-73
2023/12/17 05:10:45;;;;;;;45.80;6.70;;;;;;;7.04;100.00;101875.38;5058939;28;20441;-74
2023/12/17 05:13:11;;;;;;;52.65;6.57;;;;;;;7.03;100.00;101869.19;5059593;28;20048;-73
2023/12/17 05:15:37;;;;;;;51.03;6.30;;;;;;;7.06;100.00;101866.22;5042505;28;20025;-73
2023/12/17 05:18:03;;;;;;;52.80;6.07;;;;;;;7.05;100.00;101866.34;5042177;28;20043;-73
2023/12/17 05:20:29;;;;;;;43.80;6.50;;;;;;;7.05;100.00;101859.19;5059493;28;20032;-73
2023/12/17 05:22:54;;;;;;;41.40;6.28;;;;;;;6.59;100.00;101785.25;5059184;28;20040;-73
2023/12/17 05:25:20;;;;;;;41.35;6.10;;;;;;;7.04;100.00;101857.47;5042266;28;20036;-73
2023/12/17 05:27:46;;;;;;;35.63;5.43;;;;;;;7.02;100.00;101861.31;5060454;28;20016;-73
2023/12/17 05:30:11;;;;;;;39.38;5.65;;;;;;;6.90;100.00;101841.94;5059066;28;20037;-73
2023/12/17 05:32:37;;;;;;;30.95;4.90;;;;;;;6.99;100.00;101862.44;5077053;28;20039;-74
2023/12/17 05:35:02;;;;;;;29.40;4.68;;;;;;;6.94;100.00;101855.84;5042313;28;20071;-73
2023/12/17 05:37:28;;;;;;;28.00;4.70;;;;;;;6.97;100.00;101856.41;5059505;28;20056;-74
2023/12/17 05:39:53;;;;;;;26.35;4.53;;;;;;;7.01;100.00;101857.78;5058286;28;20025;-74
2023/12/17 05:42:18;;;;;;;32.85;5.25;;;;;;;7.05;100.00;101853.84;5076030;28;20027;-74
2023/12/17 05:44:44;;;;;;;33.63;4.63;;;;;;;6.94;100.00;101834.44;5058951;28;20386;-75
2023/12/17 05:47:09;;;;;;;28.98;4.80;;;;;;;6.92;100.00;101823.91;5057617;28;20035;-74
2023/12/17 05:49:38;;;;;;;31.27;4.50;;;;;;;6.77;100.00;101809.34;5028720;28;20104;-74
2023/12/17 05:52:04;;;;;;;29.52;5.57;;;;;;;6.98;100.00;101839.34;5063096;28;20029;-74
2023/12/17 05:54:30;;;;;;;38.97;6.15;;;;;;;7.01;100.00;101835.53;5063698;28;20108;-75
2023/12/17 05:56:55;;;;;;;41.70;6.38;;;;;;;6.85;100.00;101809.44;5062556;28;20067;-75
2023/12/17 05:59:20;;;;;;;49.85;7.35;;;;;;;7.00;100.00;101837.38;5079466;28;20024;-75
2023/12/17 06:01:46;;;;;;;67.75;8.63;;;;;;;7.03;100.00;101841.59;5080092;28;20031;-74
2023/12/17 06:04:12;;;;;;;70.40;7.78;;;;;;;6.97;100.00;101821.63;5029818;28;20050;-74
2023/12/17 06:06:37;;;;;;;52.15;7.57;;;;;;;6.99;100.00;101816.13;5079783;28;20039;-74
2023/12/17 06:09:03;;;;;;;45.10;7.45;;;;;;;7.09;100.00;101829.44;5046173;28;20032;-74
2023/12/17 06:11:29;;;;;;;44.28;7.03;;;;;;;7.05;100.00;101829.75;5079795;28;20036;-74
2023/12/17 06:13:54;;;;;;;50.33;6.57;;;;;;;7.08;100.00;101817.88;5062074;28;20035;-74
2023/12/17 06:16:20;;;;;;;57.38;7.88;;;;;;;7.00;100.00;101839.22;5033553;28;20071;-74
2023/12/17 06:18:45;;;;;;;59.97;7.50;;;;;;;7.11;100.00;101838.16;5062864;28;20028;-74
2023/12/17 06:21:20;;;;;;;53.75;7.28;;;;;;;7.11;100.00;101838.97;5062680;28;20398;-74
2023/12/17 06:23:45;;;;;;;66.53;7.75;;;;;;;7.13;100.00;101828.13;5061938;28;20436;-73
2023/12/17 06:26:11;;;;;;;49.05;7.18;;;;;;;7.00;100.00;101836.53;5079628;28;20060;-73
2023/12/17 06:28:36;;;;;;;36.65;5.75;;;;;;;6.92;100.00;101815.00;5044288;28;20044;-73
2023/12/17 06:31:02;;;;;;;33.53;5.22;;;;;;;6.96;100.00;101819.09;5039344;28;20064;-73
2023/12/17 06:33:27;;;;;;;32.92;5.57;;;;;;;7.01;100.00;101825.66;5059233;28;20526;-73
2023/12/17 06:35:52;;;;;;;29.77;4.85;;;;;;;7.02;100.00;101814.00;5077492;28;20038;-73
2023/12/17 06:38:18;;;;;;;35.47;5.30;;;;;;;7.02;100.00;101814.00;5042145;28;20052;-73
2023/12/17 06:40:45;;;;;;;52.92;6.38;;;;;;;7.03;100.00;101802.28;5041651;28;20122;-73
2023/12/17 06:43:10;;;;;;;47.47;6.53;;;;;;;7.13;100.00;101804.06;5059033;28;20039;-73
2023/12/17 06:45:35;;;;;;;66.10;7.50;;;;;;;7.18;100.00;101805.25;5060255;28;20135;-73
2023/12/17 06:48:01;;;;;;;59.40;7.38;;;;;;;7.22;100.00;101801.31;5044313;28;20025;-73
2023/12/17 06:50:26;;;;;;;75.00;8.88;;;;;;;7.21;100.00;101807.63;5060705;28;20035;-73
2023/12/17 06:52:51;;;;;;;71.15;8.95;;;;;;;7.26;100.00;101815.22;5061580;28;20081;-73
2023/12/17 06:55:17;;;;;;;84.53;9.00;;;;;;;7.14;100.00;101808.41;5044171;28;20035;-74
2023/12/17 06:57:47;;;;;;;78.60;8.30;;;;;;;7.17;100.00;101821.50;5044968;28;20109;-73
2023/12/17 07:00:14;;;;;;;90.75;10.55;;;;;;;7.16;100.00;101819.81;5061641;28;20085;-73
2023/12/17 07:02:39;;;;;;;78.53;9.40;;;;;;;7.10;100.00;101809.72;5045109;28;20040;-73
2023/12/17 07:05:05;;;;;;;70.68;9.27;;;;;;;6.97;100.00;101799.38;5044939;28;20098;-72
2023/12/17 07:07:30;;;;;;;66.53;8.82;;;;;;;6.93;100.00;101798.00;5079708;28;20047;-73
2023/12/17 07:09:56;;;;;;;75.15;9.30;;;;;;;6.69;100.00;101767.31;5079245;28;20395;-73
2023/12/17 07:12:21;;;;;;;74.18;9.63;;;;;;;6.84;100.00;101791.69;5061525;28;20036;-73
2023/12/17 07:14:46;;;;;;;71.75;9.77;;;;;;;6.87;100.00;101777.19;5061220;28;20119;-73
2023/12/17 07:17:12;;;;;;;62.60;8.90;;;;;;;6.79;100.00;101756.56;5044418;28;20117;-73
2023/12/17 07:19:37;;;;;;;61.33;9.70;;;;;;;6.63;100.00;101714.41;5078964;28;20066;-73
2023/12/17 07:22:03;;;;;;;75.05;10.27;;;;;;;6.91;100.00;101755.31;5078634;28;20029;-72
2023/12/17 07:24:28;;;;;;;62.35;9.23;;;;;;;6.93;100.00;101750.66;5044703;28;20039;-73
2023/12/17 07:26:54;;;;;;;66.13;9.65;;;;;;;6.99;100.00;101763.44;5061652;28;20107;-74
2023/12/17 07:29:19;;;;;;;52.13;9.18;;;;;;;7.04;100.00;101761.13;5044871;28;20021;-74
2023/12/17 07:31:44;;;;;;;57.42;9.55;;;;;;;7.06;100.00;101759.16;5045255;28;20617;-74
2023/12/17 07:34:12;;;;;;;52.90;8.88;;;;;;;7.04;100.00;101752.28;5061930;28;20047;-74
2023/12/17 07:36:38;;;;;;;50.05;7.95;;;;;;;7.03;100.00;101739.91;5081731;28;20040;-73
2023/12/17 07:39:05;;;;;;;56.45;8.60;;;;;;;7.20;100.00;101760.44;5047129;28;20040;-74
2023/12/17 07:41:30;;;;;;;48.33;7.80;;;;;;;7.19;100.00;101768.66;5062641;28;20041;-72
2023/12/17 07:43:56;;;;;;;65.80;9.27;;;;;;;7.25;100.00;101778.72;5066384;28;20119;-72
2023/12/17 07:46:21;;;;;;;59.33;7.72;;;;;;;7.15;100.00;101733.31;5063824;28;20029;-72
2023/12/17 07:48:46;;;;;;;55.17;7.90;;;;;;;7.20;100.00;101738.19;5062766;28;20111;-72
2023/12/17 07:51:12;;;;;;;62.92;7.90;;;;;;;7.32;100.00;101755.72;5062764;28;20024;-71
2023/12/17 07:53:38;;;;;;;37.03;7.05;;;;;;;7.36;100.00;101758.94;5060924;28;20024;-72
2023/12/17 07:56:07;;;;;;;43.92;7.25;;;;;;;7.35;100.00;101744.69;5058390;28;20089;-73
2023/12/17 07:58:33;;;;;;;52.35;8.02;;;;;;;7.25;100.00;101734.06;5059811;28;20046;-73
2023/12/17 08:00:58;;;;;;;51.80;6.95;;;;;;;7.14;100.00;101720.91;5026091;28;20032;-71
2023/12/17 08:03:24;;;;;;;53.42;6.90;;;;;;;7.26;100.00;101750.97;5077260;28;20063;-71
2023/12/17 08:05:50;;;;;;;55.13;7.25;;;;;;;7.32;100.00;101745.00;5042023;28;20478;-72
2023/12/17 08:08:15;;;;;;;46.47;6.97;;;;;;;7.28;100.00;101744.47;5058255;28;20028;-73
2023/12/17 08:10:41;;;;;;;56.50;7.50;;;;;;;7.38;100.00;101764.94;5075757;28;20032;-72
2023/12/17 08:13:06;;;;;;;58.55;7.78;;;;;;;7.36;100.00;101767.78;5041809;28;20044;-71
2023/12/17 08:15:31;;;;;;;52.90;7.88;;;;;;;7.38;100.00;101763.09;5041593;28;20052;-70
2023/12/17 08:17:57;;;;;;;60.13;7.32;;;;;;;7.16;100.00;101732.31;5058464;28;20081;-72
2023/12/17 08:20:22;;;;;;;48.53;6.60;;;;;;;7.38;100.00;101760.44;5041821;28;20471;-73
2023/12/17 08:22:47;;;;;;;61.33;7.50;;;;;;;7.33;100.00;101770.78;5041217;28;20597;-72
2023/12/17 08:25:13;;;;;;;61.85;7.57;;;;;;;7.28;100.00;101747.16;5076040;28;20044;-71
2023/12/17 08:27:38;;;;;;;54.88;7.90;;;;;;;7.28;100.00;101739.13;5058985;28;20165;-71
2023/12/17 08:30:05;;;;;;;71.43;8.18;;;;;;;7.26;100.00;101740.28;5057959;28;20030;-71
2023/12/17 08:32:34;;;;;;;49.35;7.38;;;;;;;7.25;100.00;101743.91;5075592;28;20529;-70
2023/12/17 08:35:00;;;;;;;57.65;6.82;;;;;;;7.24;100.00;101742.25;5041586;28;20036;-70
2023/12/17 08:37:26;;;;;;;54.83;7.05;;;;;;;7.23;100.00;101740.56;5057247;28;20490;-71
2023/12/17 08:39:53;;;;;;;62.28;7.13;;;;;;;7.21;100.00;101729.16;5040567;28;20032;-70
2023/12/17 08:42:19;;;;;;;53.10;6.13;;;;;;;7.19;100.00;101723.16;5040874;28;20091;-71
2023/12/17 08:44:45;;;;;;;54.08;6.90;;;;;;;7.19;100.00;101717.78;5040303;28;20028;-70
2023/12/17 08:47:11;;;;;;;42.13;5.55;;;;;;;7.22;100.00;101715.66;5057001;28;20067;-70
2023/12/17 08:49:36;;;;;;;43.67;6.65;;;;;;;7.20;100.00;101709.59;5057120;28;20029;-70
2023/12/17 08:52:02;;;;;;;46.53;6.32;;;;;;;7.21;100.00;101715.78;5039159;28;20093;-69
2023/12/17 08:54:28;;;;;;;41.80;6.65;;;;;;;7.23;100.00;101714.63;5056587;28;20104;-69
2023/12/17 08:56:54;;;;;;;49.80;6.75;;;;;;;7.24;100.00;101715.47;5039896;28;20040;-70
2023/12/17 08:59:19;;;;;;;41.03;6.57;;;;;;;7.25;100.00;101706.44;5074570;28;20037;-70
2023/12/17 09:01:44;;;;;;;43.95;7.88;;;;;;;7.27;100.00;101707.97;5057754;28;20161;-67
2023/12/17 09:04:10;;;;;;;58.08;9.10;;;;;;;7.25;100.00;101701.09;5058246;28;20025;-67
2023/12/17 09:06:46;;;;;;;49.90;7.72;;;;;;;7.20;100.00;101714.94;5076344;28;20041;-69
2023/12/17 09:09:12;;;;;;;48.85;8.40;;;;;;;7.13;100.00;101694.31;5057131;28;20067;-67
2023/12/17 09:11:38;;;;;;;56.85;8.77;;;;;;;7.15;100.00;101709.25;5056454;28;20029;-67
2023/12/17 09:14:04;;;;;;;57.65;8.77;;;;;;;7.06;100.00;101700.28;5073892;28;20040;-66
2023/12/17 09:16:29;;;;;;;55.75;8.38;;;;;;;7.07;100.00;101709.97;5039897;28;20029;-66
2023/12/17 09:18:55;;;;;;;58.85;8.20;;;;;;;7.03;100.00;101715.81;5073882;28;20387;-67
2023/12/17 09:21:20;;;;;;;55.83;8.98;;;;;;;7.01;100.00;101702.56;5056707;28;20201;-67
2023/12/17 09:23:47;;;;;;;59.85;8.45;;;;;;;7.00;100.00;101702.72;5057865;28;20039;-67
2023/12/17 09:26:12;;;;;;;49.55;8.63;;;;;;;7.00;100.00;101708.09;5077887;28;20032;-67
2023/12/17 09:28:38;;;;;;;51.95;8.07;;;;;;;6.76;100.00;101680.13;5059866;28;20021;-67
2023/12/17 09:31:08;;;;;;;64.90;8.43;;;;;;;6.98;100.00;101716.25;5077994;28;20024;-67
2023/12/17 09:33:35;;;;;;;53.42;8.90;;;;;;;6.93;100.00;101683.78;5070536;28;20033;-68
2023/12/17 09:36:00;;;;;;;60.58;8.00;;;;;;;7.10;100.00;101697.31;5081046;28;20121;-68
2023/12/17 09:38:25;;;;;;;54.28;8.23;;;;;;;7.09;100.00;101706.34;5078416;28;20068;-67
2023/12/17 09:40:51;;;;;;;54.67;7.43;;;;;;;6.97;100.00;101686.97;5076728;28;20080;-67
2023/12/17 09:43:17;;;;;;;51.72;6.97;;;;;;;7.06;100.00;101697.59;5060345;28;20039;-67
2023/12/17 09:45:44;;;;;;;54.75;6.68;;;;;;;7.07;100.00;101704.63;5079153;28;20108;-67
2023/12/17 09:48:10;;;;;;;59.38;7.45;;;;;;;7.11;100.00;101699.81;5079812;28;20028;-67
2023/12/17 09:50:35;;;;;;;48.33;6.82;;;;;;;7.00;100.00;101668.78;5079023;28;20032;-66
2023/12/17 09:53:00;;;;;;;59.03;7.05;;;;;;;7.06;100.00;101683.38;5061254;28;20483;-67
2023/12/17 09:55:26;;;;;;;53.40;7.43;;;;;;;7.10;100.00;101695.47;5079640;28;20043;-68
2023/12/17 09:57:51;;;;;;;47.55;6.38;;;;;;;7.14;100.00;101693.31;5078870;28;20035;-67
2023/12/17 10:00:17;;;;;;;55.28;6.88;;;;;;;7.12;100.00;101685.47;5061288;28;20036;-67
2023/12/17 10:02:44;;;;;;;55.15;6.75;;;;;;;7.16;100.00;101676.09;5078617;28;20494;-66
2023/12/17 10:05:09;;;;;;;69.13;7.10;;;;;;;7.10;100.00;101665.19;5075210;28;20036;-68
2023/12/17 10:07:38;;;;;;;58.63;8.13;;;;;;;7.10;100.00;101683.91;5051643;28;20155;-67
2023/12/17 10:10:04;;;;;;;51.45;6.05;;;;;;;7.14;100.00;101675.41;5041368;28;20372;-66
2023/12/17 10:12:30;;;;;;;59.25;7.28;;;;;;;7.17;100.00;101666.25;5040421;28;20056;-68
2023/12/17 10:14:56;;;;;;;59.65;7.00;;;;;;;7.19;100.00;101666.94;5040975;28;20028;-67
2023/12/17 10:17:21;;;;;;;46.08;6.45;;;;;;;7.21;100.00;101660.41;5058505;28;20025;-67
2023/12/17 10:19:51;;;;;;;64.72;8.02;;;;;;;7.21;100.00;101662.25;5041272;28;20043;-68
2023/12/17 10:22:17;;;;;;;53.35;7.22;;;;;;;7.17;100.00;101653.69;5040701;28;20056;-67
2023/12/17 10:24:42;;;;;;;61.92;7.47;;;;;;;7.26;100.00;101678.69;5058443;28;20387;-66
2023/12/17 10:27:16;;;;;;;54.70;6.70;;;;;;;7.20;100.00;101669.44;5022895;28;20043;-67
2023/12/17 10:29:44;;;;;;;53.70;6.80;;;;;;;7.15;100.00;101657.50;5053307;28;20032;-67
2023/12/17 10:32:11;;;;;;;51.42;6.95;;;;;;;7.27;100.00;101683.03;5024163;28;20120;-67
2023/12/17 10:34:38;;;;;;;51.25;6.85;;;;;;;7.28;100.00;101679.38;5023650;28;20041;-67
2023/12/17 10:37:04;;;;;;;57.20;7.20;;;;;;;7.24;100.00;101675.31;5024352;28;20060;-67
2023/12/17 10:39:32;;;;;;;50.95;7.38;;;;;;;7.20;100.00;101682.81;5041522;28;20476;-67
2023/12/17 10:41:59;;;;;;;46.05;5.53;;;;;;;7.28;100.00;101679.38;5040485;28;20098;-66
2023/12/17 10:44:27;;;;;;;47.05;6.25;;;;;;;7.23;100.00;101673.66;5040731;28;20056;-68
2023/12/17 10:46:53;;;;;;;58.40;7.00;;;;;;;7.24;100.00;101662.78;5056138;28;20029;-67
2023/12/17 10:49:19;;;;;;;49.83;5.88;;;;;;;7.16;100.00;101637.81;5038318;28;20088;-66
2023/12/17 10:51:48;;;;;;;53.15;6.93;;;;;;;7.20;100.00;101633.81;5040068;28;20404;-67
2023/12/17 10:54:13;;;;;;;52.70;6.15;;;;;;;7.30;100.00;101647.94;5057661;28;20033;-67
2023/12/17 10:56:44;;;;;;;47.30;6.35;;;;;;;7.26;100.00;101639.38;5057906;28;20044;-67
2023/12/17 10:59:13;;;;;;;51.88;6.88;;;;;;;7.33;100.00;101603.94;5040375;28;20047;-68
2023/12/17 11:01:42;;;;;;;41.53;6.32;;;;;;;7.31;100.00;101609.44;5039585;28;20500;-67
2023/12/17 11:04:08;;;;;;;43.95;5.03;;;;;;;7.35;100.00;101621.53;5057675;28;20070;-67
2023/12/17 11:06:34;;;;;;;47.85;6.70;;;;;;;7.27;100.00;101627.66;5039824;28;20029;-67
2023/12/17 11:08:59;;;;;;;49.00;6.35;;;;;;;7.30;100.00;101631.88;5039734;28;20365;-67
2023/12/17 11:11:26;;;;;;;43.05;6.47;;;;;;;7.30;100.00;101623.84;5038217;28;20037;-67